sensor_id;sensor_type;location;lat;lon;timestamp;pressure;altitude;pressure_sealevel;temperature;humidity
52319;BME280;38258;51.148;14.068;2024-01-30T00:00:45;99803.78;;;1.06;100.00
52319;BME280;38258;51.148;14.068;2024-01-30T00:03:12;99784.94;;;1.07;100.00
52319;BME280;38258;51.148;14.068;2024-01-30T00:05:39;99791.81;;;1.07;100.00
52319;BME280;38258;51.148;14.068;2024-01-30T00:08:06;99787.00;;;0.92;100.00
52319;BME280;38258;51.148;14.068;2024-01-30T00:10:32;99777.25;;;1.09;100.00
52319;BME280;38258;51.148;14.068;2024-01-30T00:12:59;99782.34;;;1.07;100.00
52319;BME280;38258;51.148;14.068;2024-01-30T00:15:25;99795.97;;;1.03;100.00
52319;BME280;38258;51.148;14.068;2024-01-30T00:17:52;99797.81;;;1.07;100.00
52319;BME280;38258;51.148;14.068;2024-01-30T00:20:20;99792.28;;;0.95;100.00
52319;BME280;38258;51.148;14.068;2024-01-30T00:22:46;99787.41;;;1.04;100.00
52319;BME280;38258;51.148;14.068;2024-01-30T00:25:13;99779.50;;;0.98;100.00
52319;BME280;38258;51.148;14.068;2024-01-30T00:27:39;99788.72;;;0.91;100.00
52319;BME280;38258;51.148;14.068;2024-01-30T00:30:07;99784.41;;;0.90;100.00
52319;BME280;38258;51.148;14.068;2024-01-30T00:32:34;99781.84;;;0.92;100.00
52319;BME280;38258;51.148;14.068;2024-01-30T00:35:00;99773.00;;;0.83;100.00
52319;BME280;38258;51.148;14.068;2024-01-30T00:37:28;99781.56;;;0.82;100.00
52319;BME280;38258;51.148;14.068;2024-01-30T00:39:54;99778.91;;;0.79;100.00
52319;BME280;38258;51.148;14.068;2024-01-30T00:42:21;99776.66;;;0.90;100.00
52319;BME280;38258;51.148;14.068;2024-01-30T00:44:49;99769.34;;;0.77;100.00
52319;BME280;38258;51.148;14.068;2024-01-30T00:47:15;99773.75;;;0.79;100.00
52319;BME280;38258;51.148;14.068;2024-01-30T00:49:41;99772.34;;;0.89;100.00
52319;BME280;38258;51.148;14.068;2024-01-30T00:52:08;99788.06;;;0.97;100.00
52319;BME280;38258;51.148;14.068;2024-01-30T00:54:36;99780.16;;;0.92;100.00
52319;BME280;38258;51.148;14.068;2024-01-30T00:57:03;99774.59;;;0.80;100.00
52319;BME280;38258;51.148;14.068;2024-01-30T00:59:30;99773.94;;;0.86;100.00
52319;BME280;38258;51.148;14.068;2024-01-30T01:01:56;99778.19;;;0.85;100.00
52319;BME280;38258;51.148;14.068;2024-01-30T01:04:23;99773.47;;;0.72;100.00
52319;BME280;38258;51.148;14.068;2024-01-30T01:06:49;99783.41;;;0.87;100.00
52319;BME280;38258;51.148;14.068;2024-01-30T01:09:16;99771.44;;;0.87;100.00
52319;BME280;38258;51.148;14.068;2024-01-30T01:11:44;99787.66;;;0.86;100.00
52319;BME280;38258;51.148;14.068;2024-01-30T01:14:11;99781.47;;;0.79;100.00
52319;BME280;38258;51.148;14.068;2024-01-30T01:16:37;99776.44;;;0.84;100.00
52319;BME280;38258;51.148;14.068;2024-01-30T01:19:04;99780.00;;;0.88;100.00
52319;BME280;38258;51.148;14.068;2024-01-30T01:21:31;99778.06;;;0.80;100.00
52319;BME280;38258;51.148;14.068;2024-01-30T01:23:58;99782.53;;;0.86;100.00
52319;BME280;38258;51.148;14.068;2024-01-30T01:26:24;99771.97;;;0.78;100.00
52319;BME280;38258;51.148;14.068;2024-01-30T01:28:52;99773.75;;;0.79;100.00
52319;BME280;38258;51.148;14.068;2024-01-30T01:31:19;99788.38;;;0.80;100.00
52319;BME280;38258;51.148;14.068;2024-01-30T01:33:50;99786.41;;;0.73;100.00
52319;BME280;38258;51.148;14.068;2024-01-30T01:36:16;99787.38;;;0.77;100.00
52319;BME280;38258;51.148;14.068;2024-01-30T01:38:43;99772.66;;;0.73;100.00
52319;BME280;38258;51.148;14.068;2024-01-30T01:41:09;99772.59;;;0.71;100.00
52319;BME280;38258;51.148;14.068;2024-01-30T01:43:36;99775.00;;;0.66;100.00
52319;BME280;38258;51.148;14.068;2024-01-30T01:46:05;99774.69;;;0.57;100.00
52319;BME280;38258;51.148;14.068;2024-01-30T01:48:31;99778.97;;;0.56;100.00
52319;BME280;38258;51.148;14.068;2024-01-30T01:50:59;99764.34;;;0.55;100.00
52319;BME280;38258;51.148;14.068;2024-01-30T01:53:26;99772.28;;;0.62;100.00
52319;BME280;38258;51.148;14.068;2024-01-30T01:55:54;99772.25;;;0.60;100.00
52319;BME280;38258;51.148;14.068;2024-01-30T01:58:21;99765.75;;;0.46;100.00
52319;BME280;38258;51.148;14.068;2024-01-30T02:00:49;99758.19;;;0.50;100.00
52319;BME280;38258;51.148;14.068;2024-01-30T02:03:18;99770.22;;;0.51;100.00
52319;BME280;38258;51.148;14.068;2024-01-30T02:05:46;99774.56;;;0.52;100.00
52319;BME280;38258;51.148;14.068;2024-01-30T02:08:13;99777.31;;;0.59;100.00
52319;BME280;38258;51.148;14.068;2024-01-30T02:10:40;99757.47;;;0.54;100.00
52319;BME280;38258;51.148;14.068;2024-01-30T02:13:08;99757.66;;;0.61;100.00
52319;BME280;38258;51.148;14.068;2024-01-30T02:15:35;99760.97;;;0.56;100.00
52319;BME280;38258;51.148;14.068;2024-01-30T02:18:02;99768.31;;;0.46;100.00
52319;BME280;38258;51.148;14.068;2024-01-30T02:20:30;99758.84;;;0.45;100.00
52319;BME280;38258;51.148;14.068;2024-01-30T02:23:00;99754.88;;;0.54;100.00
52319;BME280;38258;51.148;14.068;2024-01-30T02:25:32;99761.78;;;0.55;100.00
52319;BME280;38258;51.148;14.068;2024-01-30T02:27:59;99761.69;;;0.52;100.00
52319;BME280;38258;51.148;14.068;2024-01-30T02:30:26;99755.75;;;0.55;100.00
52319;BME280;38258;51.148;14.068;2024-01-30T02:32:52;99743.41;;;0.45;100.00
52319;BME280;38258;51.148;14.068;2024-01-30T02:35:19;99754.47;;;0.42;100.00
52319;BME280;38258;51.148;14.068;2024-01-30T02:37:46;99751.00;;;0.41;100.00
52319;BME280;38258;51.148;14.068;2024-01-30T02:40:14;99735.53;;;0.41;100.00
52319;BME280;38258;51.148;14.068;2024-01-30T02:42:40;99744.50;;;0.51;100.00
52319;BME280;38258;51.148;14.068;2024-01-30T02:45:09;99745.44;;;0.55;100.00
52319;BME280;38258;51.148;14.068;2024-01-30T02:47:35;99763.88;;;0.41;100.00
52319;BME280;38258;51.148;14.068;2024-01-30T02:50:02;99745.75;;;0.38;100.00
52319;BME280;38258;51.148;14.068;2024-01-30T02:52:29;99744.06;;;0.39;100.00
52319;BME280;38258;51.148;14.068;2024-01-30T02:54:56;99755.28;;;0.41;100.00
52319;BME280;38258;51.148;14.068;2024-01-30T02:57:24;99750.13;;;0.41;100.00
52319;BME280;38258;51.148;14.068;2024-01-30T02:59:51;99745.56;;;0.34;100.00
52319;BME280;38258;51.148;14.068;2024-01-30T03:02:18;99742.56;;;0.46;100.00
52319;BME280;38258;51.148;14.068;2024-01-30T03:04:44;99742.09;;;0.58;100.00
52319;BME280;38258;51.148;14.068;2024-01-30T03:07:11;99745.19;;;0.47;100.00
52319;BME280;38258;51.148;14.068;2024-01-30T03:09:38;99733.94;;;0.44;100.00
52319;BME280;38258;51.148;14.068;2024-01-30T03:12:05;99734.78;;;0.44;100.00
52319;BME280;38258;51.148;14.068;2024-01-30T03:14:33;99740.81;;;0.45;100.00
52319;BME280;38258;51.148;14.068;2024-01-30T03:17:00;99732.56;;;0.55;100.00
52319;BME280;38258;51.148;14.068;2024-01-30T03:19:26;99738.91;;;0.39;100.00
52319;BME280;38258;51.148;14.068;2024-01-30T03:21:53;99743.66;;;0.52;100.00
52319;BME280;38258;51.148;14.068;2024-01-30T03:24:20;99728.09;;;0.49;100.00
52319;BME280;38258;51.148;14.068;2024-01-30T03:26:46;99749.31;;;0.42;100.00
52319;BME280;38258;51.148;14.068;2024-01-30T03:29:13;99740.91;;;0.48;100.00
52319;BME280;38258;51.148;14.068;2024-01-30T03:31:42;99731.66;;;0.53;100.00
52319;BME280;38258;51.148;14.068;2024-01-30T03:34:09;99736.69;;;0.50;100.00
52319;BME280;38258;51.148;14.068;2024-01-30T03:36:36;99727.28;;;0.50;100.00
52319;BME280;38258;51.148;14.068;2024-01-30T03:39:02;99739.44;;;0.54;100.00
52319;BME280;38258;51.148;14.068;2024-01-30T03:41:29;99726.25;;;0.45;100.00
52319;BME280;38258;51.148;14.068;2024-01-30T03:43:56;99735.88;;;0.51;100.00
52319;BME280;38258;51.148;14.068;2024-01-30T03:46:23;99733.41;;;0.54;100.00
52319;BME280;38258;51.148;14.068;2024-01-30T03:48:51;99744.34;;;0.48;100.00
52319;BME280;38258;51.148;14.068;2024-01-30T03:51:17;99738.25;;;0.45;100.00
52319;BME280;38258;51.148;14.068;2024-01-30T03:53:44;99743.44;;;0.46;100.00
52319;BME280;38258;51.148;14.068;2024-01-30T03:56:12;99737.44;;;0.46;100.00
52319;BME280;38258;51.148;14.068;2024-01-30T03:58:39;99724.59;;;0.47;100.00
52319;BME280;38258;51.148;14.068;2024-01-30T04:01:06;99728.81;;;0.45;100.00
52319;BME280;38258;51.148;14.068;2024-01-30T04:03:33;99726.06;;;0.40;100.00
52319;BME280;38258;51.148;14.068;2024-01-30T04:06:02;99721.09;;;0.45;100.00
52319;BME280;38258;51.148;14.068;2024-01-30T04:08:29;99728.06;;;0.48;100.00
52319;BME280;38258;51.148;14.068;2024-01-30T04:10:55;99715.91;;;0.44;100.00
52319;BME280;38258;51.148;14.068;2024-01-30T04:13:22;99723.47;;;0.39;100.00
52319;BME280;38258;51.148;14.068;2024-01-30T04:15:48;99717.34;;;0.35;100.00
52319;BME280;38258;51.148;14.068;2024-01-30T04:18:15;99709.69;;;0.37;100.00
52319;BME280;38258;51.148;14.068;2024-01-30T04:20:42;99715.84;;;0.42;100.00
52319;BME280;38258;51.148;14.068;2024-01-30T04:23:10;99718.75;;;0.51;100.00
52319;BME280;38258;51.148;14.068;2024-01-30T04:25:36;99716.19;;;0.53;100.00
52319;BME280;38258;51.148;14.068;2024-01-30T04:28:03;99726.66;;;0.58;100.00
52319;BME280;38258;51.148;14.068;2024-01-30T04:30:30;99716.25;;;0.54;100.00
52319;BME280;38258;51.148;14.068;2024-01-30T04:32:57;99716.50;;;0.62;100.00
52319;BME280;38258;51.148;14.068;2024-01-30T04:35:23;99719.25;;;0.67;100.00
52319;BME280;38258;51.148;14.068;2024-01-30T04:37:52;99715.03;;;0.69;100.00
52319;BME280;38258;51.148;14.068;2024-01-30T04:40:20;99725.06;;;0.61;100.00
52319;BME280;38258;51.148;14.068;2024-01-30T04:42:46;99719.50;;;0.75;100.00
52319;BME280;38258;51.148;14.068;2024-01-30T04:45:13;99715.94;;;0.71;100.00
52319;BME280;38258;51.148;14.068;2024-01-30T04:47:40;99713.97;;;0.64;100.00
52319;BME280;38258;51.148;14.068;2024-01-30T04:50:07;99716.00;;;0.73;100.00
52319;BME280;38258;51.148;14.068;2024-01-30T04:52:34;99709.97;;;0.72;100.00
52319;BME280;38258;51.148;14.068;2024-01-30T04:55:01;99707.31;;;0.70;100.00
52319;BME280;38258;51.148;14.068;2024-01-30T04:57:29;99711.66;;;0.72;100.00
52319;BME280;38258;51.148;14.068;2024-01-30T04:59:57;99719.53;;;0.76;100.00
52319;BME280;38258;51.148;14.068;2024-01-30T05:02:23;99718.34;;;0.66;100.00
52319;BME280;38258;51.148;14.068;2024-01-30T05:04:50;99726.81;;;0.62;100.00
52319;BME280;38258;51.148;14.068;2024-01-30T05:07:16;99731.03;;;0.60;100.00
52319;BME280;38258;51.148;14.068;2024-01-30T05:09:44;99728.34;;;0.57;100.00
52319;BME280;38258;51.148;14.068;2024-01-30T05:12:10;99722.28;;;0.55;100.00
52319;BME280;38258;51.148;14.068;2024-01-30T05:14:38;99733.66;;;0.62;100.00
52319;BME280;38258;51.148;14.068;2024-01-30T05:17:05;99717.09;;;0.53;100.00
52319;BME280;38258;51.148;14.068;2024-01-30T05:19:33;99712.19;;;0.61;100.00
52319;BME280;38258;51.148;14.068;2024-01-30T05:21:59;99720.59;;;0.55;100.00
52319;BME280;38258;51.148;14.068;2024-01-30T05:24:26;99714.53;;;0.55;100.00
52319;BME280;38258;51.148;14.068;2024-01-30T05:26:53;99710.28;;;0.55;100.00
52319;BME280;38258;51.148;14.068;2024-01-30T05:29:19;99710.06;;;0.49;100.00
52319;BME280;38258;51.148;14.068;2024-01-30T05:31:47;99710.22;;;0.54;100.00
52319;BME280;38258;51.148;14.068;2024-01-30T05:34:14;99701.47;;;0.49;100.00
52319;BME280;38258;51.148;14.068;2024-01-30T05:36:40;99710.06;;;0.49;100.00
52319;BME280;38258;51.148;14.068;2024-01-30T05:39:07;99705.72;;;0.47;100.00
52319;BME280;38258;51.148;14.068;2024-01-30T05:41:34;99708.53;;;0.54;100.00
52319;BME280;38258;51.148;14.068;2024-01-30T05:44:00;99702.31;;;0.48;100.00
52319;BME280;38258;51.148;14.068;2024-01-30T05:46:27;99711.69;;;0.46;100.00
52319;BME280;38258;51.148;14.068;2024-01-30T05:48:55;99700.75;;;0.53;100.00
52319;BME280;38258;51.148;14.068;2024-01-30T05:51:22;99697.16;;;0.48;100.00
52319;BME280;38258;51.148;14.068;2024-01-30T05:53:48;99708.44;;;0.51;100.00
52319;BME280;38258;51.148;14.068;2024-01-30T05:56:15;99706.00;;;0.56;100.00
52319;BME280;38258;51.148;14.068;2024-01-30T05:58:41;99706.69;;;0.50;100.00
52319;BME280;38258;51.148;14.068;2024-01-30T06:01:09;99710.94;;;0.50;100.00
52319;BME280;38258;51.148;14.068;2024-01-30T06:03:35;99714.25;;;0.46;100.00
52319;BME280;38258;51.148;14.068;2024-01-30T06:06:04;99715.22;;;0.49;100.00
52319;BME280;38258;51.148;14.068;2024-01-30T06:08:30;99706.53;;;0.46;100.00
52319;BME280;38258;51.148;14.068;2024-01-30T06:10:57;99714.09;;;0.41;100.00
52319;BME280;38258;51.148;14.068;2024-01-30T06:13:23;99720.94;;;0.40;100.00
52319;BME280;38258;51.148;14.068;2024-01-30T06:15:50;99720.16;;;0.43;100.00
52319;BME280;38258;51.148;14.068;2024-01-30T06:18:17;99718.34;;;0.40;100.00
52319;BME280;38258;51.148;14.068;2024-01-30T06:20:43;99714.75;;;0.35;100.00
52319;BME280;38258;51.148;14.068;2024-01-30T06:23:11;99716.00;;;0.47;100.00
52319;BME280;38258;51.148;14.068;2024-01-30T06:25:38;99715.59;;;0.34;100.00
52319;BME280;38258;51.148;14.068;2024-01-30T06:28:05;99705.53;;;0.42;100.00
52319;BME280;38258;51.148;14.068;2024-01-30T06:30:31;99704.63;;;0.40;100.00
52319;BME280;38258;51.148;14.068;2024-01-30T06:32:58;99714.03;;;0.39;100.00
52319;BME280;38258;51.148;14.068;2024-01-30T06:35:25;99717.50;;;0.40;100.00
52319;BME280;38258;51.148;14.068;2024-01-30T06:37:51;99707.13;;;0.38;100.00
52319;BME280;38258;51.148;14.068;2024-01-30T06:40:19;99720.16;;;0.43;100.00
52319;BME280;38258;51.148;14.068;2024-01-30T06:42:46;99714.81;;;0.37;100.00
52319;BME280;38258;51.148;14.068;2024-01-30T06:45:13;99727.69;;;0.37;100.00
52319;BME280;38258;51.148;14.068;2024-01-30T06:47:40;99722.94;;;0.49;100.00
52319;BME280;38258;51.148;14.068;2024-01-30T06:50:07;99728.78;;;0.44;100.00
52319;BME280;38258;51.148;14.068;2024-01-30T06:52:34;99715.00;;;0.43;100.00
52319;BME280;38258;51.148;14.068;2024-01-30T06:55:01;99714.59;;;0.56;100.00
52319;BME280;38258;51.148;14.068;2024-01-30T06:57:29;99712.69;;;0.51;100.00
52319;BME280;38258;51.148;14.068;2024-01-30T06:59:56;99714.59;;;0.56;100.00
52319;BME280;38258;51.148;14.068;2024-01-30T07:02:22;99706.13;;;0.59;100.00
52319;BME280;38258;51.148;14.068;2024-01-30T07:04:49;99714.75;;;0.61;100.00
52319;BME280;38258;51.148;14.068;2024-01-30T07:07:16;99701.25;;;0.68;100.00
52319;BME280;38258;51.148;14.068;2024-01-30T07:09:42;99714.09;;;0.67;100.00
52319;BME280;38258;51.148;14.068;2024-01-30T07:12:09;99725.41;;;0.72;100.00
52319;BME280;38258;51.148;14.068;2024-01-30T07:14:37;99706.66;;;0.76;100.00
52319;BME280;38258;51.148;14.068;2024-01-30T07:17:04;99711.81;;;0.76;100.00
52319;BME280;38258;51.148;14.068;2024-01-30T07:19:31;99709.34;;;0.79;100.00
52319;BME280;38258;51.148;14.068;2024-01-30T07:21:58;99706.97;;;0.86;100.00
52319;BME280;38258;51.148;14.068;2024-01-30T07:24:24;99717.25;;;0.86;100.00
52319;BME280;38258;51.148;14.068;2024-01-30T07:26:51;99727.88;;;0.95;100.00
52319;BME280;38258;51.148;14.068;2024-01-30T07:29:17;99726.25;;;0.98;100.00
52319;BME280;38258;51.148;14.068;2024-01-30T07:31:45;99716.25;;;1.08;100.00
52319;BME280;38258;51.148;14.068;2024-01-30T07:34:12;99724.94;;;1.11;100.00
52319;BME280;38258;51.148;14.068;2024-01-30T07:36:39;99727.56;;;1.13;100.00
52319;BME280;38258;51.148;14.068;2024-01-30T07:39:05;99729.44;;;1.17;100.00
52319;BME280;38258;51.148;14.068;2024-01-30T07:41:32;99733.84;;;1.21;100.00
52319;BME280;38258;51.148;14.068;2024-01-30T07:44:00;99726.41;;;1.31;100.00
52319;BME280;38258;51.148;14.068;2024-01-30T07:46:29;99729.94;;;1.34;100.00
52319;BME280;38258;51.148;14.068;2024-01-30T07:48:57;99735.31;;;1.42;100.00
52319;BME280;38258;51.148;14.068;2024-01-30T07:51:24;99721.59;;;1.43;100.00
52319;BME280;38258;51.148;14.068;2024-01-30T07:53:50;99719.38;;;1.55;100.00
52319;BME280;38258;51.148;14.068;2024-01-30T07:56:17;99720.28;;;1.56;100.00
52319;BME280;38258;51.148;14.068;2024-01-30T07:58:43;99711.09;;;1.66;100.00
52319;BME280;38258;51.148;14.068;2024-01-30T08:01:10;99715.63;;;1.75;100.00
52319;BME280;38258;51.148;14.068;2024-01-30T08:03:37;99714.94;;;1.80;100.00
52319;BME280;38258;51.148;14.068;2024-01-30T08:06:06;99730.50;;;1.83;100.00
52319;BME280;38258;51.148;14.068;2024-01-30T08:08:33;99724.72;;;1.92;100.00
52319;BME280;38258;51.148;14.068;2024-01-30T08:11:00;99726.75;;;2.03;100.00
52319;BME280;38258;51.148;14.068;2024-01-30T08:13:26;99719.69;;;1.95;100.00
52319;BME280;38258;51.148;14.068;2024-01-30T08:15:53;99719.97;;;1.76;100.00
52319;BME280;38258;51.148;14.068;2024-01-30T08:18:20;99723.53;;;1.79;100.00
52319;BME280;38258;51.148;14.068;2024-01-30T08:20:46;99721.22;;;1.90;100.00
52319;BME280;38258;51.148;14.068;2024-01-30T08:23:15;99731.47;;;1.87;100.00
52319;BME280;38258;51.148;14.068;2024-01-30T08:25:42;99720.28;;;1.87;100.00
52319;BME280;38258;51.148;14.068;2024-01-30T08:28:09;99714.94;;;1.80;100.00
52319;BME280;38258;51.148;14.068;2024-01-30T08:30:35;99708.13;;;1.82;100.00
52319;BME280;38258;51.148;14.068;2024-01-30T08:33:04;99717.38;;;1.74;100.00
52319;BME280;38258;51.148;14.068;2024-01-30T08:35:31;99707.97;;;1.78;100.00
52319;BME280;38258;51.148;14.068;2024-01-30T08:37:58;99725.00;;;1.71;100.00
52319;BME280;38258;51.148;14.068;2024-01-30T08:40:26;99715.63;;;1.73;100.00
52319;BME280;38258;51.148;14.068;2024-01-30T08:42:54;99713.25;;;1.81;100.00
52319;BME280;38258;51.148;14.068;2024-01-30T08:45:20;99709.66;;;1.76;100.00
52319;BME280;38258;51.148;14.068;2024-01-30T08:47:47;99709.66;;;1.76;100.00
52319;BME280;38258;51.148;14.068;2024-01-30T08:50:14;99717.59;;;1.83;100.00
52319;BME280;38258;51.148;14.068;2024-01-30T08:52:41;99705.63;;;1.86;100.00
52319;BME280;38258;51.148;14.068;2024-01-30T08:55:08;99698.34;;;2.01;100.00
52319;BME280;38258;51.148;14.068;2024-01-30T08:57:36;99711.59;;;2.15;100.00
52319;BME280;38258;51.148;14.068;2024-01-30T09:00:03;99711.09;;;2.29;100.00
52319;BME280;38258;51.148;14.068;2024-01-30T09:02:32;99711.34;;;2.38;100.00
52319;BME280;38258;51.148;14.068;2024-01-30T09:04:58;99713.69;;;2.62;100.00
52319;BME280;38258;51.148;14.068;2024-01-30T09:07:25;99711.81;;;2.57;100.00
52319;BME280;38258;51.148;14.068;2024-01-30T09:09:51;99712.50;;;2.85;100.00
52319;BME280;38258;51.148;14.068;2024-01-30T09:12:18;99707.31;;;2.85;100.00
52319;BME280;38258;51.148;14.068;2024-01-30T09:14:46;99719.06;;;3.08;100.00
52319;BME280;38258;51.148;14.068;2024-01-30T09:17:12;99722.06;;;3.25;100.00
52319;BME280;38258;51.148;14.068;2024-01-30T09:19:40;99715.03;;;3.20;100.00
52319;BME280;38258;51.148;14.068;2024-01-30T09:22:07;99714.44;;;3.32;100.00
52319;BME280;38258;51.148;14.068;2024-01-30T09:24:33;99720.97;;;3.16;100.00
52319;BME280;38258;51.148;14.068;2024-01-30T09:27:00;99713.34;;;3.22;100.00
52319;BME280;38258;51.148;14.068;2024-01-30T09:29:26;99704.13;;;3.33;100.00
52319;BME280;38258;51.148;14.068;2024-01-30T09:31:55;99715.91;;;3.20;100.00
52319;BME280;38258;51.148;14.068;2024-01-30T09:34:21;99706.38;;;3.18;100.00
52319;BME280;38258;51.148;14.068;2024-01-30T09:36:48;99709.22;;;3.30;100.00
52319;BME280;38258;51.148;14.068;2024-01-30T09:39:15;99707.97;;;3.13;100.00
52319;BME280;38258;51.148;14.068;2024-01-30T09:41:49;99708.63;;;3.42;100.00
52319;BME280;38258;51.148;14.068;2024-01-30T09:44:19;99704.44;;;3.09;100.00
52319;BME280;38258;51.148;14.068;2024-01-30T09:46:47;99704.56;;;3.15;100.00
52319;BME280;38258;51.148;14.068;2024-01-30T09:49:15;99705.13;;;3.38;100.00
52319;BME280;38258;51.148;14.068;2024-01-30T09:51:44;99714.91;;;3.14;100.00
52319;BME280;38258;51.148;14.068;2024-01-30T09:54:13;99720.19;;;3.58;100.00
52319;BME280;38258;51.148;14.068;2024-01-30T09:56:40;99728.53;;;3.86;100.00
52319;BME280;38258;51.148;14.068;2024-01-30T09:59:07;99729.63;;;3.98;100.00
52319;BME280;38258;51.148;14.068;2024-01-30T10:01:34;99734.13;;;4.08;100.00
52319;BME280;38258;51.148;14.068;2024-01-30T10:04:01;99729.91;;;4.61;100.00
52319;BME280;38258;51.148;14.068;2024-01-30T10:06:29;99739.22;;;4.49;100.00
52319;BME280;38258;51.148;14.068;2024-01-30T10:08:56;99741.31;;;4.69;100.00
52319;BME280;38258;51.148;14.068;2024-01-30T10:11:22;99750.41;;;4.47;100.00
52319;BME280;38258;51.148;14.068;2024-01-30T10:13:49;99740.84;;;3.98;100.00
52319;BME280;38258;51.148;14.068;2024-01-30T10:16:16;99749.53;;;4.02;100.00
52319;BME280;38258;51.148;14.068;2024-01-30T10:18:43;99735.09;;;3.70;100.00
52319;BME280;38258;51.148;14.068;2024-01-30T10:21:09;99727.31;;;3.68;100.00
52319;BME280;38258;51.148;14.068;2024-01-30T10:23:38;99717.28;;;3.84;100.00
52319;BME280;38258;51.148;14.068;2024-01-30T10:26:04;99718.50;;;3.59;100.00
52319;BME280;38258;51.148;14.068;2024-01-30T10:28:32;99712.53;;;3.63;100.00
52319;BME280;38258;51.148;14.068;2024-01-30T10:30:58;99707.09;;;3.50;100.00
52319;BME280;38258;51.148;14.068;2024-01-30T10:33:26;99698.06;;;3.73;100.00
52319;BME280;38258;51.148;14.068;2024-01-30T10:35:55;99702.53;;;3.81;100.00
52319;BME280;38258;51.148;14.068;2024-01-30T10:38:28;99699.53;;;3.60;100.00
52319;BME280;38258;51.148;14.068;2024-01-30T10:40:58;99686.22;;;3.43;100.00
52319;BME280;38258;51.148;14.068;2024-01-30T10:43:30;99681.84;;;3.38;100.00
52319;BME280;38258;51.148;14.068;2024-01-30T10:46:01;99683.81;;;3.50;100.00
52319;BME280;38258;51.148;14.068;2024-01-30T10:48:32;99670.91;;;3.52;100.00
52319;BME280;38258;51.148;14.068;2024-01-30T10:51:05;99678.88;;;3.63;100.00
52319;BME280;38258;51.148;14.068;2024-01-30T10:53:32;99671.97;;;3.63;100.00
52319;BME280;38258;51.148;14.068;2024-01-30T10:56:02;99675.63;;;3.30;100.00
52319;BME280;38258;51.148;14.068;2024-01-30T10:58:30;99672.13;;;3.70;100.00
52319;BME280;38258;51.148;14.068;2024-01-30T11:00:56;99657.78;;;3.43;100.00
52319;BME280;38258;51.148;14.068;2024-01-30T11:03:24;99662.81;;;3.79;100.00
52319;BME280;38258;51.148;14.068;2024-01-30T11:05:52;99666.69;;;4.02;100.00
52319;BME280;38258;51.148;14.068;2024-01-30T11:08:24;99651.81;;;3.90;100.00
52319;BME280;38258;51.148;14.068;2024-01-30T11:10:55;99654.56;;;3.99;100.00
52319;BME280;38258;51.148;14.068;2024-01-30T11:13:27;99651.91;;;3.96;100.00
52319;BME280;38258;51.148;14.068;2024-01-30T11:15:55;99648.38;;;3.91;100.00
52319;BME280;38258;51.148;14.068;2024-01-30T11:18:25;99655.56;;;3.61;100.00
52319;BME280;38258;51.148;14.068;2024-01-30T11:20:52;99651.75;;;3.44;100.00
52319;BME280;38258;51.148;14.068;2024-01-30T11:23:18;99650.31;;;4.03;100.00
52319;BME280;38258;51.148;14.068;2024-01-30T11:25:45;99649.97;;;3.84;100.00
52319;BME280;38258;51.148;14.068;2024-01-30T11:28:15;99654.13;;;3.76;100.00
52319;BME280;38258;51.148;14.068;2024-01-30T11:30:44;99642.97;;;3.80;100.00
52319;BME280;38258;51.148;14.068;2024-01-30T11:33:14;99642.03;;;3.75;100.00
52319;BME280;38258;51.148;14.068;2024-01-30T11:35:42;99623.66;;;3.61;100.00
52319;BME280;38258;51.148;14.068;2024-01-30T11:38:10;99606.25;;;3.53;100.00
52319;BME280;38258;51.148;14.068;2024-01-30T11:40:38;99635.72;;;3.19;100.00
52319;BME280;38258;51.148;14.068;2024-01-30T11:43:06;99632.38;;;3.24;100.00
52319;BME280;38258;51.148;14.068;2024-01-30T11:45:34;99647.97;;;2.88;100.00
52319;BME280;38258;51.148;14.068;2024-01-30T11:48:03;99624.75;;;2.91;100.00
52319;BME280;38258;51.148;14.068;2024-01-30T11:50:30;99624.03;;;2.96;100.00
52319;BME280;38258;51.148;14.068;2024-01-30T11:52:57;99637.13;;;3.04;100.00
52319;BME280;38258;51.148;14.068;2024-01-30T11:55:25;99617.78;;;2.87;100.00
52319;BME280;38258;51.148;14.068;2024-01-30T11:57:55;99617.50;;;3.13;100.00
52319;BME280;38258;51.148;14.068;2024-01-30T12:00:21;99630.16;;;3.00;100.00
52319;BME280;38258;51.148;14.068;2024-01-30T12:02:49;99630.00;;;2.94;100.00
52319;BME280;38258;51.148;14.068;2024-01-30T12:05:18;99632.00;;;3.07;100.00
52319;BME280;38258;51.148;14.068;2024-01-30T12:07:45;99628.91;;;2.82;100.00
52319;BME280;38258;51.148;14.068;2024-01-30T12:10:12;99633.78;;;2.70;100.00
52319;BME280;38258;51.148;14.068;2024-01-30T12:12:41;99642.78;;;2.51;100.00
52319;BME280;38258;51.148;14.068;2024-01-30T12:15:09;99624.41;;;2.38;100.00
52319;BME280;38258;51.148;14.068;2024-01-30T12:17:36;99633.25;;;2.48;100.00
52319;BME280;38258;51.148;14.068;2024-01-30T12:20:04;99629.75;;;2.46;100.00
52319;BME280;38258;51.148;14.068;2024-01-30T12:22:35;99632.00;;;2.32;100.00
52319;BME280;38258;51.148;14.068;2024-01-30T12:25:03;99627.31;;;2.17;100.00
52319;BME280;38258;51.148;14.068;2024-01-30T12:27:30;99626.56;;;2.21;100.00
52319;BME280;38258;51.148;14.068;2024-01-30T12:29:57;99625.44;;;2.10;100.00
52319;BME280;38258;51.148;14.068;2024-01-30T12:32:23;99623.78;;;2.14;100.00
52319;BME280;38258;51.148;14.068;2024-01-30T12:34:50;99618.06;;;2.25;100.00
52319;BME280;38258;51.148;14.068;2024-01-30T12:37:17;99610.41;;;2.29;100.00
52319;BME280;38258;51.148;14.068;2024-01-30T12:39:50;99613.88;;;2.31;100.00
52319;BME280;38258;51.148;14.068;2024-01-30T12:42:17;99605.25;;;2.29;100.00
52319;BME280;38258;51.148;14.068;2024-01-30T12:44:44;99612.91;;;2.25;100.00
52319;BME280;38258;51.148;14.068;2024-01-30T12:47:10;99600.00;;;2.25;100.00
52319;BME280;38258;51.148;14.068;2024-01-30T12:49:37;99616.53;;;2.34;100.00